JBU1354 KIND-KORD
Flight info
| Callsign | JBU1354 |
|---|---|
| Flight time | 0h 34m |
| Altitude | 23000 |
| Route | MEARZ7 MEARZ BRATN BONNT VEECK5 |
| Aircraft | A20N/M-SDE2E3FGHIRWXY/LB1 |
Departure
| Time | 2026-05-04 22:33 |
|---|---|
| Airport | Indianapolis International Airport (KIND) |
Arrival
| Time | 2026-05-04 23:07 |
|---|---|
| Airport | Chicago O'Hare International Airport (KORD) |
| Time | Latitude | Longitude | Altitude | Speed | Heading |
|---|---|---|---|---|---|
| 2026-05-04 22:10 | 39.71625 | -86.29292 | 788 ft | 0 kts | 257° |
| 2026-05-04 22:21 | 39.71630 | -86.29265 | 788 ft | 4 kts | 257° |
| 2026-05-04 22:22 | 39.71632 | -86.29227 | 788 ft | 4 kts | 271° |
| 2026-05-04 22:22 | 39.71630 | -86.29190 | 788 ft | 4 kts | 290° |
| 2026-05-04 22:22 | 39.71623 | -86.29173 | 787 ft | 0 kts | 318° |
| 2026-05-04 22:24 | 39.71663 | -86.29210 | 788 ft | 20 kts | 341° |
| 2026-05-04 22:24 | 39.71750 | -86.29279 | 788 ft | 26 kts | 311° |
| 2026-05-04 22:24 | 39.71788 | -86.29323 | 788 ft | 30 kts | 314° |
| 2026-05-04 22:25 | 39.71847 | -86.29404 | 789 ft | 17 kts | 316° |
| 2026-05-04 22:25 | 39.71934 | -86.29535 | 789 ft | 22 kts | 308° |
| 2026-05-04 22:25 | 39.72019 | -86.29665 | 789 ft | 16 kts | 317° |
| 2026-05-04 22:26 | 39.72065 | -86.29680 | 789 ft | 0 kts | 28° |
| 2026-05-04 22:27 | 39.72075 | -86.29671 | 789 ft | 13 kts | 36° |
| 2026-05-04 22:27 | 39.72117 | -86.29628 | 788 ft | 0 kts | 37° |
| 2026-05-04 22:27 | 39.72118 | -86.29627 | 788 ft | 0 kts | 37° |
| 2026-05-04 22:28 | 39.72157 | -86.29599 | 787 ft | 10 kts | 17° |
| 2026-05-04 22:28 | 39.72200 | -86.29625 | 785 ft | 14 kts | 320° |
| 2026-05-04 22:28 | 39.72269 | -86.29699 | 783 ft | 5 kts | 348° |
| 2026-05-04 22:29 | 39.72326 | -86.29632 | 783 ft | 18 kts | 44° |
| 2026-05-04 22:29 | 39.72424 | -86.29508 | 782 ft | 21 kts | 44° |
| 2026-05-04 22:29 | 39.72526 | -86.29377 | 782 ft | 21 kts | 44° |
| 2026-05-04 22:29 | 39.72585 | -86.29303 | 783 ft | 0 kts | 44° |
| 2026-05-04 22:30 | 39.72627 | -86.29252 | 783 ft | 18 kts | 34° |
| 2026-05-04 22:30 | 39.72695 | -86.29289 | 783 ft | 1 kts | 316° |
| 2026-05-04 22:31 | 39.72751 | -86.29391 | 782 ft | 10 kts | 257° |
| 2026-05-04 22:31 | 39.72707 | -86.29446 | 782 ft | 0 kts | 225° |
| 2026-05-04 22:32 | 39.72704 | -86.29450 | 782 ft | 8 kts | 225° |
| 2026-05-04 22:32 | 39.72439 | -86.29787 | 782 ft | 98 kts | 224° |
| 2026-05-04 22:32 | 39.71793 | -86.30623 | 989 ft | 150 kts | 224° |
| 2026-05-04 22:33 | 39.70983 | -86.31498 | 1844 ft | 154 kts | 211° |
| 2026-05-04 22:33 | 39.70046 | -86.32270 | 2789 ft | 164 kts | 215° |
| 2026-05-04 22:33 | 39.69325 | -86.33479 | 3646 ft | 184 kts | 248° |
| 2026-05-04 22:33 | 39.69505 | -86.35902 | 4626 ft | 238 kts | 288° |
| 2026-05-04 22:34 | 39.70173 | -86.37205 | 4876 ft | 277 kts | 305° |
| 2026-05-04 22:34 | 39.71823 | -86.38796 | 4995 ft | 307 kts | 330° |
| 2026-05-04 22:34 | 39.73886 | -86.39380 | 5026 ft | 307 kts | 356° |
| 2026-05-04 22:34 | 39.76067 | -86.38776 | 5327 ft | 337 kts | 17° |
| 2026-05-04 22:35 | 39.78270 | -86.37638 | 6007 ft | 342 kts | 18° |
| 2026-05-04 22:35 | 39.80507 | -86.36570 | 6901 ft | 342 kts | 14° |
| 2026-05-04 22:35 | 39.82782 | -86.35679 | 7890 ft | 342 kts | 10° |
| 2026-05-04 22:35 | 39.85097 | -86.34920 | 8903 ft | 344 kts | 8° |
| 2026-05-04 22:36 | 39.87433 | -86.34234 | 9920 ft | 345 kts | 6° |
| 2026-05-04 22:36 | 39.89781 | -86.33577 | 10883 ft | 345 kts | 6° |
| 2026-05-04 22:36 | 39.92133 | -86.32929 | 11874 ft | 347 kts | 6° |
| 2026-05-04 22:36 | 39.94465 | -86.32287 | 12827 ft | 347 kts | 6° |
| 2026-05-04 22:37 | 39.96826 | -86.31625 | 13843 ft | 347 kts | 7° |
| 2026-05-04 22:37 | 39.99107 | -86.30512 | 14827 ft | 355 kts | 22° |
| 2026-05-04 22:37 | 40.01146 | -86.28653 | 15798 ft | 361 kts | 38° |
| 2026-05-04 22:37 | 40.02954 | -86.26384 | 16832 ft | 359 kts | 39° |
| 2026-05-04 22:38 | 40.04744 | -86.24132 | 17917 ft | 355 kts | 39° |
| 2026-05-04 22:38 | 40.06514 | -86.21914 | 18860 ft | 350 kts | 39° |
| 2026-05-04 22:38 | 40.08255 | -86.19734 | 19823 ft | 343 kts | 39° |
| 2026-05-04 22:38 | 40.09958 | -86.17604 | 20813 ft | 335 kts | 39° |
| 2026-05-04 22:39 | 40.11665 | -86.15614 | 21826 ft | 319 kts | 27° |
| 2026-05-04 22:39 | 40.13625 | -86.14446 | 22564 ft | 307 kts | 5° |
| 2026-05-04 22:39 | 40.15737 | -86.14307 | 22887 ft | 306 kts | 344° |
| 2026-05-04 22:39 | 40.17789 | -86.15130 | 23021 ft | 317 kts | 333° |
| 2026-05-04 22:40 | 40.19923 | -86.16210 | 23026 ft | 340 kts | 334° |
| 2026-05-04 22:40 | 40.22204 | -86.17355 | 23031 ft | 362 kts | 334° |
| 2026-05-04 22:40 | 40.24633 | -86.18554 | 23015 ft | 384 kts | 335° |
| 2026-05-04 22:40 | 40.27200 | -86.19812 | 23009 ft | 404 kts | 335° |
| 2026-05-04 22:41 | 40.29874 | -86.21112 | 22984 ft | 414 kts | 335° |
| 2026-05-04 22:41 | 40.32582 | -86.22421 | 22793 ft | 414 kts | 335° |
| 2026-05-04 22:41 | 40.35265 | -86.23720 | 22753 ft | 411 kts | 335° |
| 2026-05-04 22:41 | 40.37959 | -86.25033 | 22743 ft | 413 kts | 335° |
| 2026-05-04 22:42 | 40.40642 | -86.26343 | 22741 ft | 412 kts | 335° |
| 2026-05-04 22:42 | 40.43338 | -86.27664 | 22738 ft | 416 kts | 335° |
| 2026-05-04 22:42 | 40.46052 | -86.28992 | 22746 ft | 416 kts | 335° |
| 2026-05-04 22:42 | 40.48768 | -86.30321 | 22742 ft | 416 kts | 335° |
| 2026-05-04 22:43 | 40.51477 | -86.31652 | 22732 ft | 416 kts | 335° |
| 2026-05-04 22:43 | 40.54151 | -86.32969 | 22735 ft | 415 kts | 335° |
| 2026-05-04 22:43 | 40.56889 | -86.34314 | 22733 ft | 416 kts | 336° |
| 2026-05-04 22:43 | 40.59568 | -86.35628 | 22737 ft | 416 kts | 335° |
| 2026-05-04 22:44 | 40.62276 | -86.36961 | 22738 ft | 416 kts | 335° |
| 2026-05-04 22:44 | 40.64985 | -86.38295 | 22735 ft | 415 kts | 335° |
| 2026-05-04 22:44 | 40.67693 | -86.39633 | 22736 ft | 417 kts | 335° |
| 2026-05-04 22:44 | 40.70405 | -86.40971 | 22735 ft | 415 kts | 335° |
| 2026-05-04 22:45 | 40.73112 | -86.42306 | 22738 ft | 417 kts | 335° |
| 2026-05-04 22:45 | 40.78542 | -86.44992 | 22720 ft | 417 kts | 335° |
| 2026-05-04 22:45 | 40.81254 | -86.46334 | 22722 ft | 415 kts | 335° |
| 2026-05-04 22:46 | 40.83964 | -86.47678 | 22719 ft | 417 kts | 335° |
| 2026-05-04 22:46 | 40.86677 | -86.49025 | 22724 ft | 416 kts | 335° |
| 2026-05-04 22:46 | 40.89394 | -86.50376 | 22714 ft | 418 kts | 335° |
| 2026-05-04 22:46 | 40.92112 | -86.51728 | 22713 ft | 417 kts | 335° |
| 2026-05-04 22:47 | 40.94832 | -86.53083 | 22709 ft | 417 kts | 335° |
| 2026-05-04 22:47 | 40.97544 | -86.54433 | 22707 ft | 417 kts | 335° |
| 2026-05-04 22:47 | 40.99343 | -86.55330 | 22703 ft | 417 kts | 335° |
| 2026-05-04 22:47 | 41.02979 | -86.57146 | 22694 ft | 418 kts | 335° |
| 2026-05-04 22:48 | 41.05699 | -86.58508 | 22680 ft | 418 kts | 335° |
| 2026-05-04 22:48 | 41.08421 | -86.59866 | 22691 ft | 418 kts | 335° |
| 2026-05-04 22:48 | 41.11143 | -86.61224 | 22670 ft | 417 kts | 335° |
| 2026-05-04 22:48 | 41.13858 | -86.62579 | 22660 ft | 417 kts | 335° |
| 2026-05-04 22:49 | 41.16583 | -86.63935 | 22656 ft | 418 kts | 335° |
| 2026-05-04 22:49 | 41.19303 | -86.65289 | 22651 ft | 418 kts | 335° |
| 2026-05-04 22:49 | 41.21930 | -86.66872 | 22646 ft | 412 kts | 324° |
| 2026-05-04 22:49 | 41.24156 | -86.69189 | 22525 ft | 400 kts | 311° |
| 2026-05-04 22:50 | 41.25815 | -86.72038 | 22136 ft | 384 kts | 297° |
| 2026-05-04 22:50 | 41.26887 | -86.75232 | 21515 ft | 376 kts | 285° |
| 2026-05-04 22:50 | 41.27603 | -86.78567 | 20752 ft | 375 kts | 284° |
| 2026-05-04 22:50 | 41.28315 | -86.81898 | 20005 ft | 375 kts | 284° |
| 2026-05-04 22:51 | 41.29031 | -86.85222 | 19273 ft | 374 kts | 284° |
| 2026-05-04 22:51 | 41.29752 | -86.88545 | 18558 ft | 373 kts | 284° |
| 2026-05-04 22:51 | 41.30459 | -86.91800 | 17862 ft | 371 kts | 284° |
| 2026-05-04 22:51 | 41.31173 | -86.95084 | 17085 ft | 369 kts | 284° |
| 2026-05-04 22:52 | 41.31882 | -86.98354 | 16306 ft | 366 kts | 284° |
| 2026-05-04 22:52 | 41.32585 | -87.01599 | 15550 ft | 364 kts | 284° |
| 2026-05-04 22:52 | 41.33282 | -87.04818 | 14812 ft | 361 kts | 284° |
| 2026-05-04 22:52 | 41.33748 | -87.06977 | 14319 ft | 359 kts | 284° |
| 2026-05-04 22:53 | 41.34653 | -87.11176 | 13368 ft | 354 kts | 284° |
| 2026-05-04 22:53 | 41.35328 | -87.14314 | 12590 ft | 351 kts | 284° |
| 2026-05-04 22:53 | 41.36184 | -87.17354 | 11816 ft | 352 kts | 293° |
| 2026-05-04 22:53 | 41.37471 | -87.20130 | 11105 ft | 354 kts | 303° |
| 2026-05-04 22:54 | 41.39134 | -87.22496 | 10774 ft | 346 kts | 313° |
| 2026-05-04 22:54 | 41.40895 | -87.24562 | 10656 ft | 328 kts | 313° |
| 2026-05-04 22:54 | 41.42544 | -87.26527 | 10641 ft | 309 kts | 313° |
| 2026-05-04 22:54 | 41.44094 | -87.28384 | 10642 ft | 290 kts | 312° |
| 2026-05-04 22:55 | 41.45570 | -87.30161 | 10640 ft | 287 kts | 312° |
| 2026-05-04 22:55 | 41.47052 | -87.31955 | 10640 ft | 288 kts | 312° |
| 2026-05-04 22:55 | 41.48535 | -87.33747 | 10615 ft | 287 kts | 313° |
| 2026-05-04 22:55 | 41.50019 | -87.35522 | 10610 ft | 287 kts | 314° |
| 2026-05-04 22:56 | 41.51650 | -87.37106 | 10565 ft | 292 kts | 321° |
| 2026-05-04 22:56 | 41.53330 | -87.38595 | 10239 ft | 290 kts | 321° |
| 2026-05-04 22:56 | 41.55020 | -87.40106 | 9601 ft | 296 kts | 321° |
| 2026-05-04 22:56 | 41.56773 | -87.41623 | 8828 ft | 306 kts | 328° |
| 2026-05-04 22:57 | 41.58757 | -87.42784 | 8060 ft | 315 kts | 333° |
| 2026-05-04 22:57 | 41.60813 | -87.43885 | 7318 ft | 321 kts | 334° |
| 2026-05-04 22:57 | 41.62911 | -87.44990 | 6583 ft | 326 kts | 334° |
| 2026-05-04 22:57 | 41.65032 | -87.46113 | 5851 ft | 330 kts | 334° |
| 2026-05-04 22:58 | 41.67177 | -87.47259 | 5108 ft | 333 kts | 333° |
| 2026-05-04 22:58 | 41.69333 | -87.48418 | 4366 ft | 335 kts | 333° |
| 2026-05-04 22:58 | 41.71503 | -87.49587 | 3619 ft | 337 kts | 332° |
| 2026-05-04 22:58 | 41.73660 | -87.50754 | 3203 ft | 330 kts | 333° |
| 2026-05-04 22:59 | 41.75737 | -87.51877 | 3075 ft | 313 kts | 334° |
| 2026-05-04 22:59 | 41.77696 | -87.52935 | 3015 ft | 295 kts | 333° |
| 2026-05-04 22:59 | 41.79545 | -87.53932 | 3014 ft | 278 kts | 333° |
| 2026-05-04 22:59 | 41.81283 | -87.54878 | 3012 ft | 261 kts | 333° |
| 2026-05-04 23:00 | 41.82938 | -87.55778 | 3015 ft | 260 kts | 332° |
| 2026-05-04 23:00 | 41.84050 | -87.56385 | 3012 ft | 259 kts | 332° |
| 2026-05-04 23:00 | 41.86258 | -87.57595 | 3016 ft | 267 kts | 332° |
| 2026-05-04 23:00 | 41.87991 | -87.58547 | 3004 ft | 269 kts | 332° |
| 2026-05-04 23:01 | 41.89724 | -87.59491 | 3009 ft | 270 kts | 332° |
| 2026-05-04 23:01 | 41.91463 | -87.60436 | 3005 ft | 268 kts | 332° |
| 2026-05-04 23:01 | 41.93188 | -87.61377 | 3008 ft | 269 kts | 333° |
| 2026-05-04 23:01 | 41.94897 | -87.62302 | 3005 ft | 258 kts | 332° |
| 2026-05-04 23:02 | 41.96515 | -87.63174 | 3016 ft | 243 kts | 332° |
| 2026-05-04 23:02 | 41.98031 | -87.63997 | 2995 ft | 228 kts | 332° |
| 2026-05-04 23:02 | 41.99377 | -87.64970 | 2995 ft | 214 kts | 310° |
| 2026-05-04 23:02 | 42.00195 | -87.66752 | 3004 ft | 246 kts | 281° |
| 2026-05-04 23:03 | 42.00382 | -87.69049 | 2988 ft | 242 kts | 269° |
| 2026-05-04 23:03 | 42.00378 | -87.71234 | 2924 ft | 228 kts | 266° |
| 2026-05-04 23:03 | 42.00336 | -87.73334 | 2680 ft | 218 kts | 266° |
| 2026-05-04 23:03 | 42.00307 | -87.75277 | 2427 ft | 199 kts | 266° |
| 2026-05-04 23:04 | 42.00290 | -87.77050 | 2193 ft | 181 kts | 266° |
| 2026-05-04 23:04 | 42.00274 | -87.78643 | 2256 ft | 175 kts | 266° |
| 2026-05-04 23:04 | 42.00273 | -87.80189 | 2179 ft | 154 kts | 267° |
| 2026-05-04 23:04 | 42.00275 | -87.81563 | 1996 ft | 141 kts | 267° |
| 2026-05-04 23:05 | 42.00286 | -87.82891 | 1838 ft | 144 kts | 268° |
| 2026-05-04 23:05 | 42.00292 | -87.84216 | 1558 ft | 143 kts | 269° |
| 2026-05-04 23:05 | 42.00304 | -87.85530 | 1272 ft | 136 kts | 266° |
| 2026-05-04 23:05 | 42.00295 | -87.86882 | 1165 ft | 150 kts | 266° |
| 2026-05-04 23:06 | 42.00298 | -87.88240 | 923 ft | 142 kts | 264° |
| 2026-05-04 23:06 | 42.00288 | -87.89513 | 726 ft | 131 kts | 265° |
| 2026-05-04 23:06 | 42.00280 | -87.90703 | 671 ft | 111 kts | 271° |
| 2026-05-04 23:06 | 42.00283 | -87.91331 | 665 ft | 57 kts | 270° |
| 2026-05-04 23:07 | 42.00283 | -87.91841 | 670 ft | 53 kts | 269° |
| 2026-05-04 23:07 | 42.00277 | -87.92231 | 680 ft | 28 kts | 260° |
| 2026-05-04 23:07 | 42.00221 | -87.92448 | 681 ft | 14 kts | 240° |
| 2026-05-04 23:07 | 42.00217 | -87.92457 | 682 ft | 0 kts | 239° |
| 2026-05-04 23:08 | 42.00215 | -87.92462 | 682 ft | 6 kts | 239° |
| 2026-05-04 23:08 | 42.00180 | -87.92539 | 679 ft | 13 kts | 239° |
| 2026-05-04 23:09 | 42.00120 | -87.92651 | 677 ft | 15 kts | 204° |
| 2026-05-04 23:09 | 42.00018 | -87.92656 | 678 ft | 16 kts | 182° |
| 2026-05-04 23:09 | 41.99899 | -87.92674 | 677 ft | 19 kts | 188° |
| 2026-05-04 23:09 | 41.99759 | -87.92703 | 670 ft | 20 kts | 188° |
| 2026-05-04 23:10 | 41.99667 | -87.92785 | 674 ft | 14 kts | 229° |
| 2026-05-04 23:10 | 41.99597 | -87.92897 | 668 ft | 16 kts | 227° |
| 2026-05-04 23:10 | 41.99563 | -87.92954 | 672 ft | 7 kts | 231° |
| 2026-05-04 23:10 | 41.99531 | -87.93006 | 678 ft | 7 kts | 230° |
| 2026-05-04 23:11 | 41.99496 | -87.93061 | 677 ft | 10 kts | 229° |
| 2026-05-04 23:11 | 41.99435 | -87.93135 | 672 ft | 14 kts | 193° |
| 2026-05-04 23:11 | 41.99333 | -87.93140 | 675 ft | 13 kts | 180° |
| 2026-05-04 23:11 | 41.99243 | -87.93140 | 677 ft | 13 kts | 180° |
| 2026-05-04 23:12 | 41.99142 | -87.93142 | 676 ft | 16 kts | 181° |
| 2026-05-04 23:12 | 41.99026 | -87.93142 | 675 ft | 17 kts | 178° |
| 2026-05-04 23:12 | 41.98906 | -87.93144 | 676 ft | 17 kts | 182° |
| 2026-05-04 23:12 | 41.98791 | -87.93143 | 678 ft | 16 kts | 177° |
| 2026-05-04 23:13 | 41.98678 | -87.93144 | 679 ft | 17 kts | 179° |
| 2026-05-04 23:13 | 41.98565 | -87.93142 | 681 ft | 16 kts | 180° |
| 2026-05-04 23:13 | 41.98478 | -87.93143 | 681 ft | 0 kts | 181° |
| 2026-05-04 23:15 | 41.98405 | -87.93144 | 682 ft | 24 kts | 179° |
| 2026-05-04 23:16 | 41.98278 | -87.93085 | 679 ft | 22 kts | 89° |
| 2026-05-04 23:16 | 41.98279 | -87.92814 | 677 ft | 34 kts | 90° |
| 2026-05-04 23:16 | 41.98279 | -87.92495 | 668 ft | 30 kts | 86° |
| 2026-05-04 23:16 | 41.98282 | -87.92242 | 667 ft | 22 kts | 88° |
| 2026-05-04 23:17 | 41.98288 | -87.92015 | 666 ft | 26 kts | 87° |
| 2026-05-04 23:17 | 41.98287 | -87.91772 | 670 ft | 27 kts | 86° |
| 2026-05-04 23:17 | 41.98288 | -87.91516 | 667 ft | 28 kts | 90° |
| 2026-05-04 23:17 | 41.98289 | -87.91244 | 666 ft | 30 kts | 88° |
| 2026-05-04 23:18 | 41.98291 | -87.91115 | 663 ft | 3 kts | 90° |
| 2026-05-04 23:18 | 41.98261 | -87.91066 | 662 ft | 5 kts | 194° |
| 2026-05-04 23:18 | 41.98214 | -87.91143 | 663 ft | 16 kts | 230° |
| 2026-05-04 23:18 | 41.98104 | -87.91258 | 662 ft | 23 kts | 209° |
| 2026-05-04 23:19 | 41.98030 | -87.91308 | 661 ft | 7 kts | 193° |
| 2026-05-04 23:19 | 41.97994 | -87.91261 | 662 ft | 10 kts | 114° |
| 2026-05-04 23:19 | 41.98017 | -87.91139 | 664 ft | 16 kts | 87° |
| 2026-05-04 23:19 | 41.98022 | -87.91089 | 665 ft | 3 kts | 103° |
| 2026-05-04 23:20 | 41.98013 | -87.91062 | 665 ft | 0 kts | 117° |